createdAt,value
2024-03-10T00:01:36.320Z,9.08
2024-03-10T00:04:38.120Z,9.06
2024-03-10T00:07:39.887Z,9.07
2024-03-10T00:10:41.670Z,9.11
2024-03-10T00:13:45.123Z,9.14
2024-03-10T00:16:46.973Z,9.17
2024-03-10T00:19:48.768Z,9.18
2024-03-10T00:22:52.471Z,9.15
2024-03-10T00:25:54.829Z,9.17
2024-03-10T00:28:57.970Z,9.22
2024-03-10T00:31:59.819Z,9.23
2024-03-10T00:35:02.099Z,9.23
2024-03-10T00:38:04.219Z,9.29
2024-03-10T00:41:06.069Z,9.29
2024-03-10T00:44:09.238Z,9.28
2024-03-10T00:47:12.071Z,9.27
2024-03-10T00:50:13.964Z,9.25
2024-03-10T00:53:16.296Z,9.19
2024-03-10T00:56:18.250Z,9.20
2024-03-10T00:59:21.602Z,9.21
2024-03-10T01:02:24.098Z,9.19
2024-03-10T01:05:26.681Z,9.13
2024-03-10T01:08:28.538Z,9.10
2024-03-10T01:11:30.420Z,9.08
2024-03-10T01:14:33.745Z,9.09
2024-03-10T01:17:36.068Z,9.07
2024-03-10T01:20:37.937Z,8.98
2024-03-10T01:23:39.767Z,8.94
2024-03-10T01:26:42.523Z,8.89
2024-03-10T01:29:45.648Z,8.81
2024-03-10T01:32:47.577Z,8.72
2024-03-10T01:35:49.358Z,8.64
2024-03-10T01:38:51.189Z,8.58
2024-03-10T01:41:53.024Z,8.58
2024-03-10T01:44:56.125Z,8.64
2024-03-10T01:47:57.912Z,8.64
2024-03-10T01:50:59.877Z,8.65
2024-03-10T01:54:02.820Z,8.65
2024-03-10T01:57:06.459Z,8.67
2024-03-10T02:00:11.295Z,8.69
2024-03-10T02:03:13.460Z,8.68
2024-03-10T02:06:15.213Z,8.59
2024-03-10T02:09:17.313Z,8.61
2024-03-10T02:12:19.182Z,8.61
2024-03-10T02:15:22.636Z,8.64
2024-03-10T02:18:24.722Z,8.63
2024-03-10T02:21:26.589Z,8.63
2024-03-10T02:24:33.933Z,8.65
2024-03-10T02:27:37.066Z,8.60
2024-03-10T02:30:38.879Z,8.58
2024-03-10T02:33:40.653Z,8.63
2024-03-10T02:36:42.450Z,8.66
2024-03-10T02:39:44.198Z,8.70
2024-03-10T02:42:47.404Z,8.71
2024-03-10T02:45:49.192Z,8.70
2024-03-10T02:48:50.970Z,8.75
2024-03-10T02:51:52.742Z,8.76
2024-03-10T02:54:54.537Z,8.73
2024-03-10T02:57:57.660Z,8.72
2024-03-10T03:00:59.435Z,8.63
2024-03-10T03:04:01.211Z,8.60
2024-03-10T03:07:03.152Z,8.60
2024-03-10T03:10:05.574Z,8.62
2024-03-10T03:13:08.684Z,8.62
2024-03-10T03:16:10.582Z,8.64
2024-03-10T03:19:12.351Z,8.60
2024-03-10T03:22:14.129Z,8.60
2024-03-10T03:25:16.303Z,8.58
2024-03-10T03:28:19.416Z,8.55
2024-03-10T03:31:21.203Z,8.53
2024-03-10T03:34:23.023Z,8.51
2024-03-10T03:37:24.803Z,8.49
2024-03-10T03:40:26.589Z,8.51
2024-03-10T03:43:29.700Z,8.50
2024-03-10T03:46:31.632Z,8.51
2024-03-10T03:49:33.390Z,8.49
2024-03-10T03:52:35.151Z,8.44
2024-03-10T03:55:36.899Z,8.48
2024-03-10T03:58:40.034Z,8.41
2024-03-10T04:01:41.831Z,8.33
2024-03-10T04:04:43.819Z,8.32
2024-03-10T04:07:45.676Z,8.31
2024-03-10T04:10:48.419Z,8.34
2024-03-10T04:13:52.186Z,8.34
2024-03-10T04:16:53.934Z,8.32
2024-03-10T04:19:55.804Z,8.34
2024-03-10T04:22:57.659Z,8.36
2024-03-10T04:25:59.454Z,8.32
2024-03-10T04:29:02.696Z,8.36
2024-03-10T04:32:04.965Z,8.41
2024-03-10T04:35:07.660Z,8.42
2024-03-10T04:38:09.845Z,8.42
2024-03-10T04:41:11.868Z,8.47
2024-03-10T04:44:15.117Z,8.47
2024-03-10T04:47:16.946Z,8.48
2024-03-10T04:50:18.709Z,8.43
2024-03-10T04:53:20.503Z,8.45
2024-03-10T04:56:22.291Z,8.43
2024-03-10T04:59:25.501Z,8.48
2024-03-10T05:02:27.617Z,8.45
2024-03-10T05:05:29.451Z,8.44
2024-03-10T05:08:31.251Z,8.47
2024-03-10T05:11:33.475Z,8.52
2024-03-10T05:14:36.859Z,8.56
2024-03-10T05:17:39.230Z,8.54
2024-03-10T05:20:41.257Z,8.57
2024-03-10T05:23:43.118Z,8.50
2024-03-10T05:26:44.902Z,8.60
2024-03-10T05:29:48.009Z,8.63
2024-03-10T05:32:49.798Z,8.66
2024-03-10T05:35:51.531Z,8.70
2024-03-10T05:38:53.349Z,8.70
2024-03-10T05:41:55.132Z,8.71
2024-03-10T05:44:58.226Z,8.67
2024-03-10T05:48:00.002Z,8.65
2024-03-10T05:51:01.952Z,8.62
2024-03-10T05:54:03.859Z,8.63
2024-03-10T05:57:05.967Z,8.67
2024-03-10T06:00:10.172Z,8.69
2024-03-10T06:03:11.978Z,8.77
2024-03-10T06:06:13.741Z,8.83
2024-03-10T06:09:15.499Z,8.85
2024-03-10T06:12:17.406Z,8.84
2024-03-10T06:15:20.532Z,8.86
2024-03-10T06:18:22.351Z,8.84
2024-03-10T06:21:25.551Z,8.89
2024-03-10T06:24:27.409Z,8.95
2024-03-10T06:27:29.193Z,8.98
2024-03-10T06:30:32.358Z,9.00
2024-03-10T06:33:34.639Z,9.03
2024-03-10T06:36:36.501Z,9.07
2024-03-10T06:39:38.512Z,9.10
2024-03-10T06:42:42.787Z,9.08
2024-03-10T06:45:47.324Z,9.15
2024-03-10T06:48:49.183Z,9.13
2024-03-10T06:51:50.923Z,9.19
2024-03-10T06:54:52.655Z,9.28
2024-03-10T06:57:54.451Z,9.30
2024-03-10T07:00:57.609Z,9.37
2024-03-10T07:03:59.394Z,9.39
2024-03-10T07:07:01.142Z,9.44
2024-03-10T07:10:02.916Z,9.45
2024-03-10T07:13:05.196Z,9.44
2024-03-10T07:16:08.444Z,9.46
2024-03-10T07:19:10.222Z,9.41
2024-03-10T07:22:12.036Z,9.32
2024-03-10T07:25:14.184Z,9.34
2024-03-10T07:28:16.028Z,9.35
2024-03-10T07:31:19.165Z,9.36
2024-03-10T07:34:20.897Z,9.30
2024-03-10T07:37:22.667Z,9.28
2024-03-10T07:40:24.656Z,9.29
2024-03-10T07:43:26.424Z,9.29
2024-03-10T07:46:29.601Z,9.30
2024-03-10T07:49:31.423Z,9.36
2024-03-10T07:52:33.200Z,9.45
2024-03-10T07:55:34.990Z,9.53
2024-03-10T07:58:36.817Z,9.56
2024-03-10T08:01:40.078Z,9.55
2024-03-10T08:04:41.953Z,9.73
2024-03-10T08:07:47.124Z,9.96
2024-03-10T08:10:50.874Z,10.00
2024-03-10T08:13:52.780Z,10.13
2024-03-10T08:16:56.048Z,10.26
2024-03-10T08:19:57.891Z,10.35
2024-03-10T08:22:59.736Z,10.56
2024-03-10T08:26:01.898Z,10.65
2024-03-10T08:29:03.945Z,10.64
2024-03-10T08:32:07.575Z,10.65
2024-03-10T08:35:13.247Z,10.73
2024-03-10T08:38:18.378Z,10.73
2024-03-10T08:41:20.349Z,10.73
2024-03-10T08:44:22.157Z,10.71
2024-03-10T08:47:25.281Z,10.85
2024-03-10T08:50:27.324Z,10.93
2024-03-10T08:53:29.137Z,11.04
2024-03-10T08:56:30.973Z,11.14
2024-03-10T08:59:33.194Z,11.24
2024-03-10T09:02:36.433Z,11.33
2024-03-10T09:05:38.443Z,11.45
2024-03-10T09:08:40.283Z,11.46
2024-03-10T09:11:42.185Z,11.42
2024-03-10T09:14:44.131Z,11.48
2024-03-10T09:17:47.685Z,11.53
2024-03-10T09:20:49.815Z,11.55
2024-03-10T09:23:51.574Z,11.70
2024-03-10T09:26:53.433Z,11.80
2024-03-10T09:29:55.200Z,11.92
2024-03-10T09:32:58.336Z,12.00
2024-03-10T09:36:00.098Z,12.16
2024-03-10T09:39:01.893Z,12.27
2024-03-10T09:42:04.214Z,12.27
2024-03-10T09:45:14.674Z,12.41
2024-03-10T09:48:18.293Z,12.55
2024-03-10T09:51:19.944Z,12.68
2024-03-10T09:54:21.702Z,12.88
2024-03-10T09:57:23.647Z,13.03
2024-03-10T10:00:26.948Z,13.12
2024-03-10T10:03:30.681Z,13.21
2024-03-10T10:06:32.852Z,13.29
2024-03-10T10:09:34.688Z,13.42
2024-03-10T10:12:36.436Z,13.61
2024-03-10T10:15:38.224Z,13.82
2024-03-10T10:18:51.195Z,13.98
2024-03-10T10:21:56.705Z,14.16
2024-03-10T10:25:01.988Z,14.25
2024-03-10T10:28:04.296Z,14.33
2024-03-10T10:31:09.964Z,14.33
2024-03-10T10:34:13.102Z,14.37
2024-03-10T10:37:14.861Z,14.35
2024-03-10T10:40:16.633Z,14.33
2024-03-10T10:43:18.719Z,14.37
2024-03-10T10:46:21.153Z,14.49
2024-03-10T10:49:24.618Z,14.49
2024-03-10T10:52:26.309Z,14.46
2024-03-10T10:55:28.583Z,14.57
2024-03-10T10:58:32.195Z,14.65
2024-03-10T11:01:33.950Z,14.60
2024-03-10T11:04:38.853Z,14.68
2024-03-10T11:07:43.540Z,14.66
2024-03-10T11:10:46.758Z,14.78
2024-03-10T11:13:48.648Z,14.83
2024-03-10T11:16:50.528Z,14.81
2024-03-10T11:19:54.838Z,14.88
2024-03-10T11:22:56.744Z,15.03
2024-03-10T11:26:02.853Z,15.03
2024-03-10T11:29:04.666Z,15.05
2024-03-10T11:32:27.402Z,15.10
2024-03-10T11:35:32.378Z,15.10
2024-03-10T11:38:34.705Z,15.23
2024-03-10T11:41:36.589Z,15.33
2024-03-10T11:44:38.480Z,15.43
2024-03-10T11:47:40.317Z,15.52
2024-03-10T11:50:43.475Z,15.68
2024-03-10T11:53:45.278Z,15.65
2024-03-10T11:56:51.586Z,15.66
2024-03-10T11:59:54.943Z,15.76
2024-03-10T12:02:57.240Z,15.89
2024-03-10T12:06:00.413Z,15.90
2024-03-10T12:09:02.392Z,16.03
2024-03-10T12:12:10.818Z,16.26
2024-03-10T12:15:16.454Z,16.18
2024-03-10T12:18:18.299Z,16.12
2024-03-10T12:21:21.462Z,16.27
2024-03-10T12:24:23.237Z,16.37
2024-03-10T12:27:24.960Z,16.53
2024-03-10T12:30:27.579Z,16.68
2024-03-10T12:33:29.425Z,16.82
2024-03-10T12:36:32.568Z,16.64
2024-03-10T12:39:34.446Z,16.64
2024-03-10T12:42:39.381Z,16.60
2024-03-10T12:45:41.566Z,16.56
2024-03-10T12:48:43.434Z,16.55
2024-03-10T12:51:46.613Z,16.48
2024-03-10T12:54:48.446Z,16.47
2024-03-10T12:57:50.205Z,16.49
2024-03-10T13:00:51.999Z,16.59
2024-03-10T13:03:53.781Z,16.70
2024-03-10T13:06:56.937Z,16.67
2024-03-10T13:09:58.696Z,16.64
2024-03-10T13:13:00.507Z,16.52
2024-03-10T13:16:02.369Z,16.58
2024-03-10T13:19:04.113Z,16.56
2024-03-10T13:22:07.217Z,16.61
2024-03-10T13:25:08.973Z,16.64
2024-03-10T13:28:10.773Z,16.72
2024-03-10T13:31:12.633Z,16.74
2024-03-10T13:34:14.368Z,16.84
2024-03-10T13:37:17.627Z,16.63
2024-03-10T13:40:19.690Z,16.67
2024-03-10T13:43:21.461Z,16.75
2024-03-10T13:46:23.198Z,16.86
2024-03-10T13:49:24.961Z,16.98
2024-03-10T13:52:28.088Z,17.04
2024-03-10T13:55:29.829Z,17.12
2024-03-10T13:58:31.592Z,17.09
2024-03-10T14:01:33.403Z,17.08
2024-03-10T14:04:35.474Z,17.06
2024-03-10T14:07:38.673Z,17.00
2024-03-10T14:10:40.440Z,16.96
2024-03-10T14:13:42.205Z,16.92
2024-03-10T14:16:45.078Z,16.79
2024-03-10T14:19:46.870Z,16.78
2024-03-10T14:22:49.981Z,16.62
2024-03-10T14:25:51.786Z,16.64
2024-03-10T14:28:53.661Z,16.55
2024-03-10T14:31:55.500Z,16.58
2024-03-10T14:34:57.309Z,16.55
2024-03-10T14:38:00.474Z,16.43
2024-03-10T14:41:02.456Z,16.43
2024-03-10T14:44:06.447Z,16.42
2024-03-10T14:47:09.369Z,16.44
2024-03-10T14:50:14.677Z,16.46
2024-03-10T14:53:17.838Z,16.43
2024-03-10T14:56:19.735Z,16.42
2024-03-10T14:59:21.493Z,16.41
2024-03-10T15:02:23.301Z,16.37
2024-03-10T15:05:25.325Z,16.38
2024-03-10T15:08:28.514Z,16.35
2024-03-10T15:11:30.413Z,16.29
2024-03-10T15:14:32.294Z,16.25
2024-03-10T15:17:34.375Z,16.26
2024-03-10T15:20:37.106Z,16.15
2024-03-10T15:23:40.352Z,16.17
2024-03-10T15:26:42.233Z,16.10
2024-03-10T15:29:44.090Z,16.00
2024-03-10T15:32:45.989Z,15.99
2024-03-10T15:35:47.795Z,15.97
2024-03-10T15:38:50.967Z,16.01
2024-03-10T15:41:53.280Z,16.00
2024-03-10T15:44:55.163Z,15.97
2024-03-10T15:47:57.267Z,15.93
2024-03-10T15:50:59.464Z,15.90
2024-03-10T15:54:02.616Z,15.93
2024-03-10T15:57:04.790Z,15.86
2024-03-10T16:00:07.775Z,15.76
2024-03-10T16:03:14.531Z,15.71
2024-03-10T16:06:16.347Z,15.61
2024-03-10T16:09:19.452Z,15.48
2024-03-10T16:12:21.309Z,15.41
2024-03-10T16:15:28.517Z,15.26
2024-03-10T16:18:32.624Z,15.21
2024-03-10T16:21:37.951Z,15.10
2024-03-10T16:24:41.149Z,15.01
2024-03-10T16:27:43.058Z,14.92
2024-03-10T16:30:45.033Z,14.82
2024-03-10T16:33:46.886Z,14.77
2024-03-10T16:36:48.685Z,14.71
2024-03-10T16:39:51.781Z,14.71
2024-03-10T16:42:53.524Z,14.66
2024-03-10T16:45:55.458Z,14.61
2024-03-10T16:48:57.328Z,14.56
2024-03-10T16:51:59.128Z,14.53
2024-03-10T16:55:02.294Z,14.51
2024-03-10T16:58:04.359Z,14.49
2024-03-10T17:01:06.123Z,14.46
2024-03-10T17:04:07.898Z,14.45
2024-03-10T17:07:09.655Z,14.45
2024-03-10T17:10:13.030Z,14.42
2024-03-10T17:13:14.740Z,14.37
2024-03-10T17:16:16.522Z,14.32
2024-03-10T17:19:18.270Z,14.28
2024-03-10T17:22:20.020Z,14.25
2024-03-10T17:25:23.177Z,14.18
2024-03-10T17:28:24.938Z,14.18
2024-03-10T17:31:26.728Z,14.13
2024-03-10T17:34:28.486Z,14.12
2024-03-10T17:37:30.276Z,14.10
2024-03-10T17:40:33.406Z,14.05
2024-03-10T17:43:35.196Z,14.05
2024-03-10T17:46:37.265Z,14.01
2024-03-10T17:49:41.226Z,13.98
2024-03-10T17:52:44.699Z,14.01
2024-03-10T17:55:47.826Z,13.95
2024-03-10T17:58:49.575Z,13.92
2024-03-10T18:01:51.339Z,13.93
2024-03-10T18:04:53.079Z,13.90
2024-03-10T18:07:54.873Z,13.89
2024-03-10T18:10:58.008Z,13.91
2024-03-10T18:13:59.772Z,13.90
2024-03-10T18:17:01.655Z,13.87
2024-03-10T18:20:03.913Z,13.85
2024-03-10T18:23:05.789Z,13.83
2024-03-10T18:26:09.013Z,13.84
2024-03-10T18:29:12.351Z,13.82
2024-03-10T18:32:15.502Z,13.81
2024-03-10T18:35:17.492Z,13.79
2024-03-10T18:38:19.458Z,13.73
2024-03-10T18:41:22.869Z,13.68
2024-03-10T18:44:24.908Z,13.72
2024-03-10T18:47:27.020Z,13.67
2024-03-10T18:50:28.868Z,13.69
2024-03-10T18:53:30.881Z,13.62
2024-03-10T18:56:34.160Z,13.69
2024-03-10T18:59:36.093Z,13.70
2024-03-10T19:02:38.012Z,13.68
2024-03-10T19:05:40.242Z,13.71
2024-03-10T19:08:42.135Z,13.70
2024-03-10T19:11:45.567Z,13.66
2024-03-10T19:14:47.469Z,13.65
2024-03-10T19:17:49.292Z,13.61
2024-03-10T19:20:51.160Z,13.59
2024-03-10T19:23:53.132Z,13.59
2024-03-10T19:26:56.438Z,13.57
2024-03-10T19:29:58.475Z,13.59
2024-03-10T19:33:00.473Z,13.59
2024-03-10T19:36:02.426Z,13.60
2024-03-10T19:39:04.335Z,13.58
2024-03-10T19:42:07.785Z,13.61
2024-03-10T19:45:10.360Z,13.64
2024-03-10T19:48:12.247Z,13.67
2024-03-10T19:51:14.228Z,13.68
2024-03-10T19:54:16.102Z,13.60
2024-03-10T19:57:19.943Z,13.64
2024-03-10T20:00:21.916Z,13.57
2024-03-10T20:03:23.672Z,13.55
2024-03-10T20:06:25.632Z,13.49
2024-03-10T20:09:27.500Z,13.55
2024-03-10T20:12:30.621Z,13.60
2024-03-10T20:15:32.486Z,13.55
2024-03-10T20:18:34.266Z,13.53
2024-03-10T20:21:36.174Z,13.54
2024-03-10T20:24:37.909Z,13.49
2024-03-10T20:27:41.778Z,13.49
2024-03-10T20:30:43.581Z,13.44
2024-03-10T20:33:45.351Z,13.43
2024-03-10T20:36:47.101Z,13.40
2024-03-10T20:39:48.829Z,13.36
2024-03-10T20:42:51.926Z,13.29
2024-03-10T20:45:59.527Z,13.29
2024-03-10T20:49:02.077Z,13.28
2024-03-10T20:52:04.111Z,13.20
2024-03-10T20:55:06.549Z,13.16
2024-03-10T20:58:09.668Z,13.16
2024-03-10T21:01:11.679Z,13.17
2024-03-10T21:04:13.996Z,13.15
2024-03-10T21:07:16.001Z,13.10
2024-03-10T21:10:17.908Z,13.08
2024-03-10T21:13:21.034Z,13.03
2024-03-10T21:16:22.869Z,13.00
2024-03-10T21:19:24.760Z,12.90
2024-03-10T21:22:26.509Z,12.88
2024-03-10T21:25:28.443Z,12.87
2024-03-10T21:28:31.761Z,12.86
2024-03-10T21:31:33.519Z,12.86
2024-03-10T21:34:36.528Z,12.85
2024-03-10T21:37:38.553Z,12.76
2024-03-10T21:40:40.327Z,12.81
2024-03-10T21:43:43.467Z,12.82
2024-03-10T21:46:45.382Z,12.76
2024-03-10T21:49:47.183Z,12.74
2024-03-10T21:52:49.135Z,12.71
2024-03-10T21:55:50.873Z,12.72
2024-03-10T21:58:53.986Z,12.71
2024-03-10T22:01:55.764Z,12.74
2024-03-10T22:04:57.525Z,12.77
2024-03-10T22:07:59.399Z,12.75
2024-03-10T22:11:01.262Z,12.77
2024-03-10T22:14:04.654Z,12.78
2024-03-10T22:17:06.459Z,12.79
2024-03-10T22:20:09.071Z,12.78
2024-03-10T22:23:10.898Z,12.73
2024-03-10T22:26:12.722Z,12.73
2024-03-10T22:29:15.972Z,12.74
2024-03-10T22:32:17.818Z,12.70
2024-03-10T22:35:19.736Z,12.69
2024-03-10T22:38:21.720Z,12.67
2024-03-10T22:41:23.574Z,12.64
2024-03-10T22:44:26.756Z,12.60
2024-03-10T22:47:28.552Z,12.60
2024-03-10T22:50:30.653Z,12.60
2024-03-10T22:53:32.672Z,12.61
2024-03-10T22:56:34.531Z,12.57
2024-03-10T22:59:37.741Z,12.56
2024-03-10T23:02:39.553Z,12.52
2024-03-10T23:05:42.074Z,12.47
2024-03-10T23:08:43.859Z,12.45
2024-03-10T23:11:45.747Z,12.42
2024-03-10T23:14:48.978Z,12.39
2024-03-10T23:17:50.814Z,12.36
2024-03-10T23:20:53.268Z,12.32
2024-03-10T23:23:55.055Z,12.33
2024-03-10T23:26:58.307Z,12.29
2024-03-10T23:30:03.143Z,12.26
2024-03-10T23:33:05.515Z,12.23
2024-03-10T23:36:07.844Z,12.24
2024-03-10T23:39:09.602Z,12.23
2024-03-10T23:42:11.478Z,12.24
2024-03-10T23:45:14.633Z,12.23
2024-03-10T23:48:16.508Z,12.23
2024-03-10T23:51:18.277Z,12.24
2024-03-10T23:54:20.014Z,12.20
2024-03-10T23:57:21.801Z,12.17
